createdAt,value
2018-12-16T00:00:50.435Z,1.73
2018-12-16T00:01:50.416Z,1.70
2018-12-16T00:02:50.368Z,1.87
2018-12-16T00:03:50.328Z,1.84
2018-12-16T00:04:50.294Z,1.88
2018-12-16T00:05:50.247Z,1.91
2018-12-16T00:06:50.210Z,1.94
2018-12-16T00:07:50.168Z,1.92
2018-12-16T00:08:50.132Z,1.95
2018-12-16T00:09:50.077Z,2.00
2018-12-16T00:10:50.054Z,1.91
2018-12-16T00:11:50.011Z,1.95
2018-12-16T00:12:49.966Z,1.89
2018-12-16T00:13:49.928Z,1.95
2018-12-16T00:14:49.891Z,1.91
2018-12-16T00:15:49.851Z,1.92
2018-12-16T00:16:49.808Z,1.81
2018-12-16T00:17:49.763Z,1.89
2018-12-16T00:18:49.726Z,1.94
2018-12-16T00:19:49.694Z,1.88
2018-12-16T00:20:49.650Z,1.87
2018-12-16T00:21:49.616Z,1.92
2018-12-16T00:22:49.582Z,1.88
2018-12-16T00:23:49.528Z,1.89
2018-12-16T00:24:49.494Z,1.89
2018-12-16T00:25:49.468Z,1.99
2018-12-16T00:26:49.415Z,1.85
2018-12-16T00:27:49.369Z,1.94
2018-12-16T00:28:49.336Z,1.88
2018-12-16T00:29:49.292Z,1.91
2018-12-16T00:30:49.253Z,1.95
2018-12-16T00:31:49.213Z,1.91
2018-12-16T00:32:49.181Z,1.89
2018-12-16T00:33:49.157Z,1.95
2018-12-16T00:34:49.110Z,1.91
2018-12-16T00:35:49.063Z,1.80
2018-12-16T00:36:49.033Z,1.91
2018-12-16T00:37:48.975Z,1.88
2018-12-16T00:38:48.945Z,1.78
2018-12-16T00:39:48.924Z,1.92
2018-12-16T00:40:48.863Z,1.91
2018-12-16T00:41:48.824Z,1.95
2018-12-16T00:42:48.775Z,1.97
2018-12-16T00:43:48.748Z,1.91
2018-12-16T00:44:48.714Z,1.88
2018-12-16T00:45:48.683Z,1.84
2018-12-16T00:46:48.625Z,1.91
2018-12-16T00:47:48.585Z,1.92
2018-12-16T00:48:48.546Z,1.97
2018-12-16T00:49:48.508Z,1.91
2018-12-16T00:50:48.465Z,1.97
2018-12-16T00:51:48.460Z,2.02
2018-12-16T00:52:48.390Z,2.02
2018-12-16T00:53:48.355Z,1.94
2018-12-16T00:54:48.311Z,2.00
2018-12-16T00:55:48.280Z,1.94
2018-12-16T00:56:48.239Z,2.02
2018-12-16T00:57:48.250Z,1.97
2018-12-16T00:58:48.169Z,1.99
2018-12-16T00:59:48.122Z,1.97
2018-12-16T01:00:48.070Z,1.92
2018-12-16T01:01:48.034Z,1.85
2018-12-16T01:02:48.000Z,1.87
2018-12-16T01:03:47.960Z,1.97
2018-12-16T01:04:47.911Z,1.99
2018-12-16T01:05:47.878Z,1.91
2018-12-16T01:06:47.844Z,1.99
2018-12-16T01:07:47.794Z,2.00
2018-12-16T01:08:47.764Z,1.92
2018-12-16T01:09:47.721Z,1.94
2018-12-16T01:10:47.703Z,2.06
2018-12-16T01:11:47.652Z,2.00
2018-12-16T01:12:47.603Z,2.00
2018-12-16T01:13:47.566Z,1.99
2018-12-16T01:14:47.526Z,2.00
2018-12-16T01:15:47.487Z,1.97
2018-12-16T01:16:47.442Z,2.00
2018-12-16T01:17:47.412Z,2.00
2018-12-16T01:18:47.366Z,2.00
2018-12-16T01:19:47.316Z,2.10
2018-12-16T01:20:47.292Z,1.99
2018-12-16T01:21:47.242Z,1.95
2018-12-16T01:22:47.204Z,2.00
2018-12-16T01:23:47.171Z,2.06
2018-12-16T01:24:47.122Z,1.95
2018-12-16T01:25:47.095Z,2.02
2018-12-16T01:26:47.047Z,2.04
2018-12-16T01:27:47.005Z,2.04
2018-12-16T01:28:46.985Z,2.06
2018-12-16T01:29:46.927Z,1.95
2018-12-16T01:30:46.892Z,2.02
2018-12-16T01:31:46.856Z,1.94
2018-12-16T01:32:46.812Z,1.94
2018-12-16T01:33:46.785Z,1.91
2018-12-16T01:34:46.747Z,1.92
2018-12-16T01:35:46.692Z,1.85
2018-12-16T01:36:46.647Z,1.81
2018-12-16T01:37:46.621Z,1.87
2018-12-16T01:38:46.588Z,1.80
2018-12-16T01:39:46.542Z,1.66
2018-12-16T01:40:46.497Z,1.74
2018-12-16T01:41:46.456Z,1.56
2018-12-16T01:42:46.425Z,1.67
2018-12-16T01:43:46.387Z,1.55
2018-12-16T01:44:46.340Z,1.59
2018-12-16T01:45:46.312Z,1.53
2018-12-16T01:46:46.280Z,1.48
2018-12-16T01:47:46.218Z,1.55
2018-12-16T01:48:46.171Z,1.38
2018-12-16T01:49:46.147Z,1.37
2018-12-16T01:50:46.112Z,1.37
2018-12-16T01:51:46.078Z,1.28
2018-12-16T01:52:50.229Z,1.23
2018-12-16T01:53:45.980Z,1.24
2018-12-16T01:54:45.939Z,1.23
2018-12-16T01:55:45.902Z,1.24
2018-12-16T01:56:45.866Z,1.26
2018-12-16T01:57:45.826Z,1.24
2018-12-16T01:58:45.786Z,1.17
2018-12-16T01:59:45.748Z,1.19
2018-12-16T02:00:45.702Z,1.22
2018-12-16T02:01:45.671Z,1.26
2018-12-16T02:02:45.636Z,1.17
2018-12-16T02:03:45.593Z,1.08
2018-12-16T02:04:45.548Z,1.08
2018-12-16T02:05:45.503Z,1.05
2018-12-16T02:06:45.465Z,1.14
2018-12-16T02:07:45.424Z,1.14
2018-12-16T02:08:45.385Z,1.14
2018-12-16T02:09:45.347Z,1.06
2018-12-16T02:10:45.344Z,1.14
2018-12-16T02:11:45.271Z,1.13
2018-12-16T02:12:45.232Z,1.16
2018-12-16T02:13:45.187Z,1.12
2018-12-16T02:14:45.154Z,1.20
2018-12-16T02:15:45.113Z,1.04
2018-12-16T02:16:45.077Z,1.14
2018-12-16T02:17:45.042Z,1.12
2018-12-16T02:18:44.995Z,1.17
2018-12-16T02:19:44.954Z,1.05
2018-12-16T02:20:44.912Z,1.04
2018-12-16T02:21:44.892Z,1.12
2018-12-16T02:22:44.829Z,1.05
2018-12-16T02:23:44.793Z,1.08
2018-12-16T02:24:44.753Z,1.10
2018-12-16T02:25:44.718Z,1.13
2018-12-16T02:26:44.674Z,1.01
2018-12-16T02:27:44.644Z,1.10
2018-12-16T02:28:44.588Z,1.05
2018-12-16T02:29:44.552Z,1.12
2018-12-16T02:30:44.516Z,1.05
2018-12-16T02:31:44.483Z,1.14
2018-12-16T02:32:44.430Z,1.06
2018-12-16T02:33:44.393Z,1.01
2018-12-16T02:34:44.363Z,1.02
2018-12-16T02:35:44.319Z,0.99
2018-12-16T02:36:44.285Z,1.01
2018-12-16T02:37:44.239Z,0.99
2018-12-16T02:38:44.188Z,0.92
2018-12-16T02:39:44.160Z,1.04
2018-12-16T02:40:44.119Z,0.95
2018-12-16T02:41:44.078Z,0.98
2018-12-16T02:42:44.026Z,0.92
2018-12-16T02:43:44.036Z,0.94
2018-12-16T02:44:43.945Z,0.91
2018-12-16T02:45:43.905Z,1.01
2018-12-16T02:46:43.882Z,1.05
2018-12-16T02:47:43.844Z,0.91
2018-12-16T02:48:43.791Z,0.91
2018-12-16T02:49:43.766Z,0.99
2018-12-16T02:50:43.720Z,0.92
2018-12-16T02:51:43.666Z,0.91
2018-12-16T02:52:43.640Z,0.95
2018-12-16T02:53:43.586Z,0.92
2018-12-16T02:54:43.547Z,0.94
2018-12-16T02:55:43.510Z,0.92
2018-12-16T02:56:43.512Z,0.92
2018-12-16T02:57:43.434Z,0.92
2018-12-16T02:58:43.399Z,0.87
2018-12-16T02:59:43.362Z,0.98
2018-12-16T03:00:43.316Z,0.94
2018-12-16T03:01:43.267Z,0.98
2018-12-16T03:02:43.239Z,0.92
2018-12-16T03:03:43.194Z,0.80
2018-12-16T03:04:43.150Z,0.83
2018-12-16T03:05:43.110Z,0.86
2018-12-16T03:06:43.079Z,0.84
2018-12-16T03:07:43.032Z,0.98
2018-12-16T03:08:43.003Z,0.78
2018-12-16T03:09:42.957Z,0.81
2018-12-16T03:10:42.912Z,0.88
2018-12-16T03:11:42.888Z,0.92
2018-12-16T03:12:42.830Z,1.02
2018-12-16T03:13:42.801Z,0.98
2018-12-16T03:14:42.748Z,0.92
2018-12-16T03:15:42.720Z,0.92
2018-12-16T03:16:42.677Z,0.98
2018-12-16T03:17:42.640Z,0.95
2018-12-16T03:18:42.592Z,0.96
2018-12-16T03:19:42.551Z,0.88
2018-12-16T03:20:43.065Z,0.94
2018-12-16T03:21:42.480Z,0.99
2018-12-16T03:22:42.465Z,1.05
2018-12-16T03:23:42.396Z,0.98
2018-12-16T03:24:42.362Z,0.91
2018-12-16T03:25:42.316Z,1.04
2018-12-16T03:26:42.282Z,0.98
2018-12-16T03:27:42.244Z,1.04
2018-12-16T03:28:42.196Z,0.94
2018-12-16T03:29:42.156Z,0.98
2018-12-16T03:30:42.124Z,0.99
2018-12-16T03:31:42.071Z,0.92
2018-12-16T03:32:42.037Z,0.94
2018-12-16T03:33:42.001Z,0.78
2018-12-16T03:34:41.958Z,0.84
2018-12-16T03:35:41.926Z,0.84
2018-12-16T03:36:41.882Z,0.81
2018-12-16T03:37:41.835Z,0.84
2018-12-16T03:38:41.796Z,0.86
2018-12-16T03:39:41.752Z,0.76
2018-12-16T03:40:41.709Z,0.86
2018-12-16T03:41:41.671Z,0.83
2018-12-16T03:42:41.642Z,0.84
2018-12-16T03:43:41.597Z,0.76
2018-12-16T03:44:41.562Z,0.80
2018-12-16T03:45:41.530Z,0.65
2018-12-16T03:46:41.477Z,0.87
2018-12-16T03:47:41.444Z,0.81
2018-12-16T03:48:41.397Z,0.84
2018-12-16T03:49:41.343Z,0.70
2018-12-16T03:50:41.315Z,0.68
2018-12-16T03:51:41.274Z,0.86
2018-12-16T03:52:41.264Z,0.73
2018-12-16T03:53:41.207Z,0.70
2018-12-16T03:54:41.157Z,0.83
2018-12-16T03:55:41.119Z,0.81
2018-12-16T03:56:41.077Z,0.78
2018-12-16T03:57:41.029Z,0.78
2018-12-16T03:58:41.024Z,0.74
2018-12-16T03:59:40.970Z,0.78
2018-12-16T04:00:40.910Z,0.78
2018-12-16T04:01:40.879Z,0.77
2018-12-16T04:02:40.829Z,0.77
2018-12-16T04:03:40.789Z,0.88
2018-12-16T04:04:40.750Z,0.83
2018-12-16T04:05:40.724Z,0.78
2018-12-16T04:06:40.674Z,0.84
2018-12-16T04:07:40.638Z,0.76
2018-12-16T04:08:40.607Z,0.86
2018-12-16T04:09:40.552Z,0.78
2018-12-16T04:10:40.507Z,0.78
2018-12-16T04:11:40.473Z,0.78
2018-12-16T04:12:40.436Z,0.73
2018-12-16T04:13:40.391Z,0.76
2018-12-16T04:14:41.357Z,0.78
2018-12-16T04:15:40.317Z,0.78
2018-12-16T04:16:40.265Z,0.70
2018-12-16T04:17:40.224Z,0.76
2018-12-16T04:18:40.196Z,0.83
2018-12-16T04:19:40.142Z,0.78
2018-12-16T04:20:40.110Z,0.87
2018-12-16T04:21:40.069Z,0.86
2018-12-16T04:22:40.033Z,0.84
2018-12-16T04:23:39.999Z,0.69
2018-12-16T04:24:39.964Z,0.69
2018-12-16T04:25:39.913Z,0.66
2018-12-16T04:26:39.874Z,0.76
2018-12-16T04:27:39.824Z,0.73
2018-12-16T04:28:39.791Z,0.76
2018-12-16T04:29:39.749Z,0.88
2018-12-16T04:30:39.723Z,0.83
2018-12-16T04:31:39.665Z,0.83
2018-12-16T04:32:39.640Z,0.74
2018-12-16T04:33:39.603Z,0.80
2018-12-16T04:34:39.541Z,0.86
2018-12-16T04:35:39.512Z,0.77
2018-12-16T04:36:39.472Z,0.78
2018-12-16T04:37:39.434Z,0.78
2018-12-16T04:38:39.396Z,0.77
2018-12-16T04:39:39.352Z,0.76
2018-12-16T04:40:39.305Z,0.69
2018-12-16T04:41:39.276Z,0.78
2018-12-16T04:42:39.235Z,0.83
2018-12-16T04:43:39.190Z,0.78
2018-12-16T04:44:39.155Z,0.76
2018-12-16T04:45:39.117Z,0.87
2018-12-16T04:46:39.071Z,0.80
2018-12-16T04:47:39.037Z,0.80
2018-12-16T04:48:38.995Z,0.81
2018-12-16T04:49:38.945Z,0.78
2018-12-16T04:50:38.913Z,0.73
2018-12-16T04:51:38.876Z,0.80
2018-12-16T04:52:38.830Z,0.88
2018-12-16T04:53:38.791Z,0.87
2018-12-16T04:54:38.753Z,0.83
2018-12-16T04:55:38.712Z,0.80
2018-12-16T04:56:38.672Z,0.73
2018-12-16T04:57:38.622Z,0.74
2018-12-16T04:58:38.595Z,0.77
2018-12-16T04:59:38.541Z,0.74
2018-12-16T05:00:38.507Z,0.80
2018-12-16T05:01:38.477Z,0.74
2018-12-16T05:02:38.429Z,0.81
2018-12-16T05:03:38.386Z,0.80
2018-12-16T05:04:38.341Z,0.83
2018-12-16T05:05:38.311Z,0.76
2018-12-16T05:06:38.275Z,0.83
2018-12-16T05:07:38.225Z,0.86
2018-12-16T05:08:38.189Z,0.87
2018-12-16T05:09:38.148Z,0.73
2018-12-16T05:10:38.105Z,0.83
2018-12-16T05:11:38.077Z,0.81
2018-12-16T05:12:38.037Z,0.80
2018-12-16T05:13:37.996Z,0.88
2018-12-16T05:14:37.948Z,0.88
2018-12-16T05:15:37.905Z,0.86
2018-12-16T05:16:37.878Z,0.78
2018-12-16T05:17:37.830Z,0.83
2018-12-16T05:18:37.802Z,0.87
2018-12-16T05:19:37.782Z,0.83
2018-12-16T05:20:37.707Z,0.95
2018-12-16T05:21:37.671Z,0.86
2018-12-16T05:22:37.661Z,0.94
2018-12-16T05:23:41.906Z,0.92
2018-12-16T05:24:37.552Z,1.01
2018-12-16T05:25:37.512Z,0.96
2018-12-16T05:26:37.487Z,0.98
2018-12-16T05:27:37.429Z,0.91
2018-12-16T05:28:37.431Z,0.99
2018-12-16T05:29:37.353Z,1.01
2018-12-16T05:30:37.323Z,1.02
2018-12-16T05:31:37.268Z,0.98
2018-12-16T05:32:37.224Z,0.95
2018-12-16T05:33:37.184Z,0.96
2018-12-16T05:34:37.167Z,1.02
2018-12-16T05:35:37.110Z,0.99
2018-12-16T05:36:37.078Z,0.96
2018-12-16T05:37:37.028Z,0.94
2018-12-16T05:38:36.986Z,0.95
2018-12-16T05:39:36.949Z,0.94
2018-12-16T05:40:36.907Z,0.99
2018-12-16T05:41:36.868Z,0.98
2018-12-16T05:42:36.832Z,0.92
2018-12-16T05:43:36.796Z,0.94
2018-12-16T05:44:36.756Z,0.98
2018-12-16T05:45:36.722Z,0.94
2018-12-16T05:46:36.675Z,1.01
2018-12-16T05:47:36.969Z,0.99
2018-12-16T05:48:36.767Z,1.08
2018-12-16T05:49:36.546Z,0.98
2018-12-16T05:50:36.512Z,1.05
2018-12-16T05:51:36.472Z,1.02
2018-12-16T05:52:36.446Z,0.96
2018-12-16T05:53:36.394Z,1.02
2018-12-16T05:54:36.349Z,1.01
2018-12-16T05:55:36.304Z,0.99
2018-12-16T05:56:36.269Z,1.04
2018-12-16T05:57:36.242Z,1.05
2018-12-16T05:58:36.197Z,1.01
2018-12-16T05:59:36.149Z,1.10
2018-12-16T06:00:36.109Z,1.06
2018-12-16T06:01:36.071Z,0.98
2018-12-16T06:02:36.027Z,1.02
2018-12-16T06:03:35.983Z,1.16
2018-12-16T06:04:35.964Z,1.08
2018-12-16T06:05:35.903Z,1.13
2018-12-16T06:06:35.875Z,1.13
2018-12-16T06:07:35.818Z,1.12
2018-12-16T06:08:35.792Z,1.05
2018-12-16T06:09:35.748Z,1.16
2018-12-16T06:10:35.720Z,1.13
2018-12-16T06:11:35.665Z,1.01
2018-12-16T06:12:35.624Z,1.19
2018-12-16T06:13:35.617Z,1.19
2018-12-16T06:14:35.553Z,1.08
2018-12-16T06:15:35.505Z,1.13
2018-12-16T06:16:35.810Z,1.17
2018-12-16T06:17:35.450Z,1.02
2018-12-16T06:18:35.392Z,1.13
2018-12-16T06:19:35.365Z,1.19
2018-12-16T06:20:35.321Z,1.13
2018-12-16T06:21:35.270Z,1.12
2018-12-16T06:22:35.230Z,1.17
2018-12-16T06:23:35.190Z,1.06
2018-12-16T06:24:35.165Z,1.23
2018-12-16T06:25:35.107Z,1.20
2018-12-16T06:26:35.079Z,1.17
2018-12-16T06:27:35.054Z,1.22
2018-12-16T06:28:35.920Z,1.20
2018-12-16T06:29:34.960Z,1.20
2018-12-16T06:30:34.915Z,1.17
2018-12-16T06:31:34.880Z,1.30
2018-12-16T06:32:34.846Z,1.23
2018-12-16T06:33:34.800Z,1.22
2018-12-16T06:34:34.757Z,1.23
2018-12-16T06:35:34.712Z,1.24
2018-12-16T06:36:34.684Z,1.28
2018-12-16T06:37:34.642Z,1.22
2018-12-16T06:38:34.594Z,1.20
2018-12-16T06:39:34.559Z,1.28
2018-12-16T06:40:34.511Z,1.22
2018-12-16T06:41:34.486Z,1.26
2018-12-16T06:42:34.430Z,1.23
2018-12-16T06:43:34.399Z,1.34
2018-12-16T06:44:34.356Z,1.31
2018-12-16T06:45:34.320Z,1.38
2018-12-16T06:46:34.272Z,1.26
2018-12-16T06:47:34.237Z,1.32
2018-12-16T06:48:34.198Z,1.32
2018-12-16T06:49:34.151Z,1.38
2018-12-16T06:50:34.111Z,1.37
2018-12-16T06:51:34.086Z,1.35
2018-12-16T06:52:34.047Z,1.35
2018-12-16T06:53:33.996Z,1.32
2018-12-16T06:54:33.955Z,1.32
2018-12-16T06:55:33.924Z,1.40
2018-12-16T06:56:33.886Z,1.34
2018-12-16T06:57:33.835Z,1.37
2018-12-16T06:58:33.795Z,1.40
2018-12-16T06:59:33.761Z,1.37
2018-12-16T07:00:33.725Z,1.41
2018-12-16T07:01:33.685Z,1.38
2018-12-16T07:02:33.644Z,1.42
2018-12-16T07:03:33.598Z,1.45
2018-12-16T07:04:33.569Z,1.38
2018-12-16T07:05:33.536Z,1.37
2018-12-16T07:06:33.487Z,1.37
2018-12-16T07:07:33.508Z,1.35
2018-12-16T07:08:33.396Z,1.41
2018-12-16T07:09:33.362Z,1.37
2018-12-16T07:10:33.317Z,1.52
2018-12-16T07:11:33.285Z,1.40
2018-12-16T07:12:33.253Z,1.48
2018-12-16T07:13:33.205Z,1.42
2018-12-16T07:14:33.177Z,1.49
2018-12-16T07:15:33.130Z,1.44
2018-12-16T07:16:33.088Z,1.55
2018-12-16T07:17:33.048Z,1.38
2018-12-16T07:18:33.025Z,1.40
2018-12-16T07:19:32.966Z,1.48
2018-12-16T07:20:32.928Z,1.52
2018-12-16T07:21:32.886Z,1.44
2018-12-16T07:22:32.837Z,1.52
2018-12-16T07:23:32.830Z,1.42
2018-12-16T07:24:32.773Z,1.37
2018-12-16T07:25:32.722Z,1.49
2018-12-16T07:26:32.739Z,1.49
2018-12-16T07:27:32.648Z,1.52
2018-12-16T07:28:32.608Z,1.53
2018-12-16T07:29:32.577Z,1.52
2018-12-16T07:30:32.544Z,1.55
2018-12-16T07:31:32.500Z,1.42
2018-12-16T07:32:32.601Z,1.50
2018-12-16T07:33:32.417Z,1.52
2018-12-16T07:34:32.371Z,1.55
2018-12-16T07:35:32.328Z,1.56
2018-12-16T07:36:32.294Z,1.60
2018-12-16T07:37:32.249Z,1.59
2018-12-16T07:38:32.211Z,1.67
2018-12-16T07:39:32.176Z,1.62
2018-12-16T07:40:32.160Z,1.60
2018-12-16T07:41:32.093Z,1.63
2018-12-16T07:42:32.074Z,1.60
2018-12-16T07:43:32.010Z,1.60
2018-12-16T07:44:31.979Z,1.63
2018-12-16T07:45:31.938Z,1.62
2018-12-16T07:46:31.904Z,1.63
2018-12-16T07:47:31.849Z,1.59
2018-12-16T07:48:31.823Z,1.62
2018-12-16T07:49:31.821Z,1.68
2018-12-16T07:50:31.738Z,1.68
2018-12-16T07:51:31.699Z,1.66
2018-12-16T07:52:31.693Z,1.71
2018-12-16T07:53:31.613Z,1.73
2018-12-16T07:54:31.614Z,1.67
2018-12-16T07:55:31.561Z,1.71
2018-12-16T07:56:31.512Z,1.74
2018-12-16T07:57:31.488Z,1.80
2018-12-16T07:58:31.467Z,1.70
2018-12-16T07:59:31.399Z,1.84
2018-12-16T08:00:31.370Z,1.88
2018-12-16T08:01:31.314Z,1.88
2018-12-16T08:02:31.303Z,1.88
2018-12-16T08:03:31.247Z,1.91
2018-12-16T08:04:31.180Z,1.91
2018-12-16T08:05:31.155Z,1.88
2018-12-16T08:06:31.131Z,1.84
2018-12-16T08:07:31.067Z,1.95
2018-12-16T08:08:31.039Z,1.89
2018-12-16T08:09:30.990Z,2.00
2018-12-16T08:10:30.953Z,1.99
2018-12-16T08:11:30.916Z,2.02
2018-12-16T08:12:30.884Z,1.97
2018-12-16T08:13:30.838Z,1.99
2018-12-16T08:14:30.803Z,1.97
2018-12-16T08:15:30.769Z,2.00
2018-12-16T08:16:30.720Z,1.94
2018-12-16T08:17:30.683Z,1.95
2018-12-16T08:18:30.642Z,2.00
2018-12-16T08:19:30.588Z,1.91
2018-12-16T08:20:30.555Z,1.97
2018-12-16T08:21:30.523Z,1.99
2018-12-16T08:22:30.486Z,2.11
2018-12-16T08:23:30.439Z,2.06
2018-12-16T08:24:30.450Z,2.10
2018-12-16T08:25:30.361Z,2.07
2018-12-16T08:26:30.334Z,2.10
2018-12-16T08:27:30.285Z,2.00
2018-12-16T08:28:30.240Z,2.02
2018-12-16T08:29:30.209Z,2.00
2018-12-16T08:30:30.170Z,2.13
2018-12-16T08:31:30.125Z,2.11
2018-12-16T08:32:30.079Z,2.07
2018-12-16T08:33:30.055Z,2.11
2018-12-16T08:34:30.001Z,2.08
2018-12-16T08:35:29.967Z,2.08
2018-12-16T08:36:29.925Z,2.11
2018-12-16T08:37:29.881Z,2.10
2018-12-16T08:38:29.847Z,2.11
2018-12-16T08:39:29.811Z,2.14
2018-12-16T08:40:29.844Z,2.13
2018-12-16T08:41:29.740Z,2.22
2018-12-16T08:42:29.687Z,2.22
2018-12-16T08:43:29.658Z,2.31
2018-12-16T08:44:29.635Z,2.26
2018-12-16T08:45:29.590Z,2.32
2018-12-16T08:46:29.536Z,2.25
2018-12-16T08:47:33.111Z,2.25
2018-12-16T08:48:29.455Z,2.29
2018-12-16T08:49:29.426Z,2.31
2018-12-16T08:50:29.389Z,2.24
2018-12-16T08:51:29.347Z,2.33
2018-12-16T08:52:29.303Z,2.39
2018-12-16T08:53:29.266Z,2.36
2018-12-16T08:54:30.143Z,2.35
2018-12-16T08:55:29.261Z,2.33
2018-12-16T08:56:29.141Z,2.35
2018-12-16T08:57:29.106Z,2.38
2018-12-16T08:58:29.061Z,2.36
2018-12-16T08:59:29.031Z,2.35
2018-12-16T09:00:28.984Z,2.33
2018-12-16T09:01:29.384Z,2.42
2018-12-16T09:02:28.906Z,2.43
2018-12-16T09:03:28.878Z,2.44
2018-12-16T09:04:28.833Z,2.44
2018-12-16T09:05:28.792Z,2.44
2018-12-16T09:06:28.756Z,2.56
2018-12-16T09:07:28.717Z,2.46
2018-12-16T09:08:28.683Z,2.56
2018-12-16T09:09:28.633Z,2.54
2018-12-16T09:10:34.069Z,2.57
2018-12-16T09:11:28.608Z,2.61
2018-12-16T09:12:28.520Z,2.62
2018-12-16T09:13:28.479Z,2.62
2018-12-16T09:14:28.442Z,2.56
2018-12-16T09:15:28.397Z,2.67
2018-12-16T09:16:28.372Z,2.64
2018-12-16T09:17:28.337Z,2.64
2018-12-16T09:18:28.284Z,2.71
2018-12-16T09:19:28.243Z,2.72
2018-12-16T09:20:28.218Z,2.68
2018-12-16T09:21:28.167Z,2.71
2018-12-16T09:22:28.147Z,2.71
2018-12-16T09:23:28.109Z,2.62
2018-12-16T09:24:28.057Z,2.71
2018-12-16T09:25:28.014Z,2.74
2018-12-16T09:26:27.981Z,2.82
2018-12-16T09:27:27.942Z,2.79
2018-12-16T09:28:27.893Z,2.80
2018-12-16T09:29:27.860Z,2.87
2018-12-16T09:30:27.824Z,2.80
2018-12-16T09:31:27.784Z,2.82
2018-12-16T09:32:27.739Z,2.90
2018-12-16T09:33:27.708Z,2.87
2018-12-16T09:34:27.694Z,2.95
2018-12-16T09:35:27.620Z,2.90
2018-12-16T09:36:27.764Z,2.97
2018-12-16T09:37:27.550Z,3.00
2018-12-16T09:38:27.510Z,2.95
2018-12-16T09:39:27.480Z,3.10
2018-12-16T09:40:27.420Z,3.03
2018-12-16T09:41:27.390Z,3.10
2018-12-16T09:42:27.358Z,3.11
2018-12-16T09:43:27.321Z,3.05
2018-12-16T09:44:27.280Z,3.08
2018-12-16T09:45:27.239Z,3.05
2018-12-16T09:46:27.203Z,3.05
2018-12-16T09:47:27.159Z,3.13
2018-12-16T09:48:27.128Z,3.11
2018-12-16T09:49:27.076Z,3.14
2018-12-16T09:50:27.054Z,3.14
2018-12-16T09:51:27.010Z,3.16
2018-12-16T09:52:26.971Z,3.19
2018-12-16T09:53:27.032Z,3.22
2018-12-16T09:54:26.903Z,3.31
2018-12-16T09:55:26.850Z,3.25
2018-12-16T09:56:26.810Z,3.26
2018-12-16T09:57:26.776Z,3.22
2018-12-16T09:58:26.736Z,3.25
2018-12-16T09:59:26.691Z,3.25
2018-12-16T10:00:26.666Z,3.32
2018-12-16T10:01:26.624Z,3.22
2018-12-16T10:02:26.579Z,3.21
2018-12-16T10:03:26.544Z,3.29
2018-12-16T10:04:26.509Z,3.25
2018-12-16T10:05:26.495Z,3.36
2018-12-16T10:06:26.517Z,3.34
2018-12-16T10:07:26.392Z,3.32
2018-12-16T10:08:26.346Z,3.37
2018-12-16T10:09:26.317Z,3.36
2018-12-16T10:10:26.267Z,3.37
2018-12-16T10:11:26.241Z,3.37
2018-12-16T10:12:26.198Z,3.42
2018-12-16T10:13:26.165Z,3.44
2018-12-16T10:14:26.124Z,3.41
2018-12-16T10:15:26.080Z,3.29
2018-12-16T10:16:26.053Z,3.42
2018-12-16T10:17:26.015Z,3.41
2018-12-16T10:18:25.992Z,3.32
2018-12-16T10:19:25.925Z,3.31
2018-12-16T10:20:25.887Z,3.34
2018-12-16T10:21:25.852Z,3.34
2018-12-16T10:22:25.824Z,3.32
2018-12-16T10:23:25.782Z,3.37
2018-12-16T10:24:25.741Z,3.34
2018-12-16T10:25:25.707Z,3.37
2018-12-16T10:26:25.666Z,3.26
2018-12-16T10:27:25.622Z,3.34
2018-12-16T10:28:25.581Z,3.34
2018-12-16T10:29:25.549Z,3.37
2018-12-16T10:30:25.503Z,3.36
2018-12-16T10:31:25.477Z,3.29
2018-12-16T10:32:25.423Z,3.42
2018-12-16T10:33:25.387Z,3.47
2018-12-16T10:34:25.351Z,3.48
2018-12-16T10:35:25.300Z,3.45
2018-12-16T10:36:25.280Z,3.44
2018-12-16T10:37:25.235Z,3.50
2018-12-16T10:38:25.206Z,3.45
2018-12-16T10:39:25.153Z,3.47
2018-12-16T10:40:25.122Z,3.44
2018-12-16T10:41:25.086Z,3.50
2018-12-16T10:42:25.048Z,3.42
2018-12-16T10:43:25.028Z,3.41
2018-12-16T10:44:24.978Z,3.44
2018-12-16T10:45:24.925Z,3.47
2018-12-16T10:46:24.902Z,3.50
2018-12-16T10:47:24.852Z,3.50
2018-12-16T10:48:24.817Z,3.44
2018-12-16T10:49:24.812Z,3.55
2018-12-16T10:50:24.737Z,3.55
2018-12-16T10:51:24.693Z,3.51
2018-12-16T10:52:24.688Z,3.58
2018-12-16T10:53:24.637Z,3.50
2018-12-16T10:54:24.581Z,3.51
2018-12-16T10:55:24.548Z,3.51
2018-12-16T10:56:24.507Z,3.45
2018-12-16T10:57:24.480Z,3.55
2018-12-16T10:58:24.423Z,3.55
2018-12-16T10:59:24.398Z,3.45
2018-12-16T11:00:24.354Z,3.58
2018-12-16T11:01:24.307Z,3.51
2018-12-16T11:02:24.744Z,3.59
2018-12-16T11:03:24.332Z,3.62
2018-12-16T11:04:24.198Z,3.56
2018-12-16T11:05:24.158Z,3.48
2018-12-16T11:06:24.124Z,3.59
2018-12-16T11:07:24.084Z,3.63
2018-12-16T11:08:24.062Z,3.62
2018-12-16T11:09:24.009Z,3.65
2018-12-16T11:10:23.963Z,3.60
2018-12-16T11:11:23.933Z,3.68
2018-12-16T11:12:23.893Z,3.69
2018-12-16T11:13:23.858Z,3.69
2018-12-16T11:14:23.817Z,3.62
2018-12-16T11:15:23.769Z,3.68
2018-12-16T11:16:23.772Z,3.63
2018-12-16T11:17:23.700Z,3.60
2018-12-16T11:18:23.660Z,3.62
2018-12-16T11:19:23.619Z,3.74
2018-12-16T11:20:23.588Z,3.73
2018-12-16T11:21:23.540Z,3.76
2018-12-16T11:22:23.504Z,3.74
2018-12-16T11:23:23.461Z,3.83
2018-12-16T11:24:23.428Z,3.60
2018-12-16T11:25:23.388Z,3.68
2018-12-16T11:26:23.356Z,3.63
2018-12-16T11:27:23.320Z,3.62
2018-12-16T11:28:23.271Z,3.70
2018-12-16T11:29:23.240Z,3.76
2018-12-16T11:30:23.195Z,3.73
2018-12-16T11:31:23.161Z,3.76
2018-12-16T11:32:23.125Z,3.83
2018-12-16T11:33:23.091Z,3.84
2018-12-16T11:34:23.055Z,3.78
2018-12-16T11:35:23.019Z,3.74
2018-12-16T11:36:22.999Z,3.86
2018-12-16T11:37:22.924Z,3.84
2018-12-16T11:38:22.911Z,3.84
2018-12-16T11:39:22.874Z,3.86
2018-12-16T11:40:22.815Z,3.84
2018-12-16T11:41:22.800Z,3.86
2018-12-16T11:42:22.747Z,3.91
2018-12-16T11:43:22.709Z,3.86
2018-12-16T11:44:22.697Z,3.69
2018-12-16T11:45:22.624Z,3.68
2018-12-16T11:46:22.619Z,3.56
2018-12-16T11:47:22.545Z,3.55
2018-12-16T11:48:22.572Z,3.56
2018-12-16T11:49:22.481Z,3.56
2018-12-16T11:50:22.456Z,3.62
2018-12-16T11:51:22.406Z,3.74
2018-12-16T11:52:22.360Z,3.76
2018-12-16T11:53:22.331Z,3.83
2018-12-16T11:54:22.291Z,3.83
2018-12-16T11:55:22.251Z,3.78
2018-12-16T11:56:22.263Z,3.73
2018-12-16T11:57:22.167Z,3.68
2018-12-16T11:58:22.120Z,3.69
2018-12-16T11:59:22.101Z,3.69
2018-12-16T12:00:22.046Z,3.74
2018-12-16T12:01:22.018Z,3.87
2018-12-16T12:02:22.001Z,3.88
2018-12-16T12:03:21.942Z,3.91
2018-12-16T12:04:21.918Z,3.92
2018-12-16T12:05:21.926Z,3.99
2018-12-16T12:06:21.848Z,3.94
2018-12-16T12:07:21.792Z,3.86
2018-12-16T12:08:21.747Z,3.91
2018-12-16T12:09:21.718Z,3.83
2018-12-16T12:10:21.688Z,3.86
2018-12-16T12:11:21.656Z,3.98
2018-12-16T12:12:21.599Z,4.06
2018-12-16T12:13:21.566Z,3.96
2018-12-16T12:14:21.511Z,4.02
2018-12-16T12:15:21.667Z,4.13
2018-12-16T12:16:21.451Z,4.17
2018-12-16T12:17:21.404Z,4.08
2018-12-16T12:18:21.371Z,4.19
2018-12-16T12:19:21.353Z,4.22
2018-12-16T12:20:21.292Z,4.23
2018-12-16T12:21:21.246Z,4.23
2018-12-16T12:22:21.213Z,4.19
2018-12-16T12:23:21.177Z,4.35
2018-12-16T12:24:21.146Z,4.35
2018-12-16T12:25:21.132Z,4.38
2018-12-16T12:26:21.064Z,4.38
2018-12-16T12:27:21.057Z,4.48
2018-12-16T12:28:20.992Z,4.49
2018-12-16T12:29:20.955Z,4.48
2018-12-16T12:30:20.909Z,4.45
2018-12-16T12:31:20.884Z,4.56
2018-12-16T12:32:20.829Z,4.55
2018-12-16T12:33:20.819Z,4.58
2018-12-16T12:34:20.827Z,4.58
2018-12-16T12:35:21.362Z,4.56
2018-12-16T12:36:20.702Z,4.70
2018-12-16T12:37:20.657Z,4.59
2018-12-16T12:38:20.610Z,4.67
2018-12-16T12:39:20.563Z,4.59
2018-12-16T12:40:20.533Z,4.59
2018-12-16T12:41:20.492Z,4.59
2018-12-16T12:42:20.458Z,4.56
2018-12-16T12:43:20.428Z,4.60
2018-12-16T12:44:20.381Z,4.60
2018-12-16T12:45:20.341Z,4.70
2018-12-16T12:46:20.313Z,4.66
2018-12-16T12:47:20.275Z,4.63
2018-12-16T12:48:20.244Z,4.74
2018-12-16T12:49:20.193Z,4.73
2018-12-16T12:50:20.160Z,4.70
2018-12-16T12:51:20.114Z,4.68
2018-12-16T12:52:20.090Z,4.63
2018-12-16T12:53:20.050Z,4.58
2018-12-16T12:54:20.004Z,4.71
2018-12-16T12:55:26.652Z,4.75
2018-12-16T12:56:19.940Z,4.71
2018-12-16T12:57:19.894Z,4.67
2018-12-16T12:58:19.862Z,4.78
2018-12-16T12:59:19.841Z,4.82
2018-12-16T13:00:19.784Z,4.77
2018-12-16T13:01:19.734Z,4.82
2018-12-16T13:02:19.703Z,4.90
2018-12-16T13:03:19.671Z,4.87
2018-12-16T13:04:19.655Z,4.93
2018-12-16T13:05:19.590Z,4.82
2018-12-16T13:06:19.564Z,4.55
2018-12-16T13:07:19.520Z,4.60
2018-12-16T13:08:19.487Z,4.62
2018-12-16T13:09:19.457Z,4.68
2018-12-16T13:10:19.397Z,4.80
2018-12-16T13:11:19.369Z,4.90
2018-12-16T13:12:19.327Z,4.89
2018-12-16T13:13:19.291Z,4.84
2018-12-16T13:14:19.256Z,4.86
2018-12-16T13:15:19.220Z,4.68
2018-12-16T13:16:19.166Z,4.74
2018-12-16T13:17:19.147Z,4.86
2018-12-16T13:18:19.101Z,4.82